Time;durP1;ratioP1;P1;durP2;ratioP2;P2;SDS_P1;SDS_P2;PMS_P1;PMS_P2;Temp;Humidity;BMP_temperature;BMP_pressure;BME280_temperature;BME280_humidity;BME280_pressure;Samples;Min_cycle;Max_cycle;Signal;HPM_P1;HPM_P2
2022/08/08 00:00:13;;;;;;;7.13;4.65;;;;;;;19.21;46.19;102382.53;5003037;28;113666;-74
2022/08/08 00:03:09;;;;;;;7.28;4.30;;;;;;;19.19;46.33;102379.06;5000661;28;123942;-74
2022/08/08 00:06:11;;;;;;;6.38;4.57;;;;;;;19.17;46.49;102387.22;4996389;28;123400;-74
2022/08/08 00:08:48;;;;;;;7.63;4.63;;;;;;;19.12;46.66;102386.63;5005254;28;114495;-74
2022/08/08 00:11:31;;;;;;;5.80;4.40;;;;;;;19.10;46.93;102385.84;5005247;28;113896;-74
2022/08/08 00:14:33;;;;;;;5.15;4.43;;;;;;;19.06;46.84;102389.63;5012144;27;122700;-75
2022/08/08 00:17:55;;;;;;;6.82;4.75;;;;;;;19.03;46.78;102389.81;5005359;28;123514;-74
2022/08/08 00:20:48;;;;;;;7.40;4.40;;;;;;;19.01;47.01;102389.91;5012310;27;114248;-74
2022/08/08 00:23:27;;;;;;;5.72;4.32;;;;;;;18.97;47.33;102396.41;5015096;28;113350;-74
2022/08/08 00:26:21;;;;;;;9.90;5.10;;;;;;;18.95;47.16;102392.06;4997989;28;123555;-74
2022/08/08 00:29:12;;;;;;;6.60;4.60;;;;;;;18.94;47.01;102395.72;5030217;28;123870;-74
2022/08/08 00:31:48;;;;;;;7.05;4.57;;;;;;;18.94;47.34;102398.41;5021109;28;114513;-73
2022/08/08 00:35:10;;;;;;;7.00;4.68;;;;;;;18.91;47.31;102395.88;5049893;22;114726;31
2022/08/08 00:37:54;;;;;;;6.88;5.30;;;;;;;18.88;47.49;102398.75;4970725;28;123054;-76
2022/08/08 00:40:28;;;;;;;9.00;4.90;;;;;;;18.85;47.47;102397.97;4971334;28;124352;-76
2022/08/08 00:43:24;;;;;;;6.90;4.60;;;;;;;18.82;47.36;102398.13;4984291;28;114685;-76
2022/08/08 00:46:25;;;;;;;8.15;4.72;;;;;;;18.79;47.61;102392.03;4977335;28;114046;-76
2022/08/08 00:49:22;;;;;;;8.70;5.03;;;;;;;18.75;48.18;102394.00;4953345;28;124143;-76
2022/08/08 00:51:53;;;;;;;7.63;5.17;;;;;;;18.72;47.78;102386.09;4952947;28;123200;-76
2022/08/08 00:55:00;;;;;;;8.25;4.85;;;;;;;18.70;48.03;102387.16;4970002;28;115070;-76
2022/08/08 00:57:50;;;;;;;6.80;4.72;;;;;;;18.66;48.28;102381.94;4970297;28;114072;-76
2022/08/08 01:00:27;;;;;;;6.70;4.63;;;;;;;18.64;48.21;102391.03;4968707;28;124473;-76
2022/08/08 01:03:19;;;;;;;9.85;5.40;;;;;;;18.62;48.21;102387.56;4938226;28;123507;-76
2022/08/08 01:06:16;;;;;;;8.30;5.20;;;;;;;18.59;48.21;102379.69;4939912;28;114343;-76
2022/08/08 01:09:15;;;;;;;7.25;4.57;;;;;;;18.58;48.38;102383.34;4970804;28;114191;-76
2022/08/08 01:12:35;;;;;;;15.57;5.75;;;;;;;18.57;48.49;102370.84;4940536;28;123357;-76
2022/08/08 01:15:20;;;;;;;7.05;5.00;;;;;;;18.55;48.45;102373.59;4952320;28;123524;-76
2022/08/08 01:18:46;;;;;;;7.35;5.15;;;;;;;18.55;48.49;102378.13;4953165;28;113402;-76
2022/08/08 01:21:48;;;;;;;8.52;5.15;;;;;;;18.51;48.35;102374.72;4890744;28;112834;-76
2022/08/08 01:24:57;;;;;;;10.48;5.30;;;;;;;18.47;48.34;102376.72;4850454;28;123649;-75
2022/08/08 01:28:03;;;;;;;7.60;5.20;;;;;;;18.45;48.55;102377.75;4968548;28;123067;-75
2022/08/08 01:31:10;;;;;;;10.32;5.30;;;;;;;18.41;48.41;102377.06;4953331;28;113170;-75
2022/08/08 01:34:37;;;;;;;10.50;5.70;;;;;;;18.37;48.21;102380.00;4947160;28;115818;-76
2022/08/08 01:37:27;;;;;;;9.38;5.32;;;;;;;18.31;48.38;102374.94;4958569;28;124131;-76
2022/08/08 01:40:30;;;;;;;8.23;5.72;;;;;;;18.26;48.93;102377.88;4942847;28;123118;-76
2022/08/08 01:43:05;;;;;;;10.48;5.85;;;;;;;18.24;49.21;102374.41;4953064;28;112607;-75
2022/08/08 01:45:49;;;;;;;9.95;5.53;;;;;;;18.24;49.15;102374.41;4970915;28;114649;-75
2022/08/08 01:48:52;;;;;;;8.73;5.20;;;;;;;18.21;49.07;102377.25;4952363;28;123205;-75
2022/08/08 01:51:47;;;;;;;10.73;5.82;;;;;;;18.18;49.09;102380.09;4951844;28;123469;-75
2022/08/08 01:54:44;;;;;;;8.52;5.65;;;;;;;18.13;49.30;102371.44;4951975;28;115271;-76
2022/08/08 01:58:03;;;;;;;10.38;6.20;;;;;;;18.07;49.40;102384.19;4952511;28;113991;-75
2022/08/08 02:01:19;;;;;;;8.70;5.65;;;;;;;18.02;49.58;102378.19;4968827;28;122301;-75
2022/08/08 02:04:14;;;;;;;9.63;6.50;;;;;;;17.99;49.97;102370.34;4952652;28;124112;-76
2022/08/08 02:06:54;;;;;;;8.75;6.35;;;;;;;17.96;50.01;102375.84;4955368;28;114274;-75
2022/08/08 02:09:56;;;;;;;8.27;5.97;;;;;;;17.96;50.10;102375.84;4968486;28;112456;-75
2022/08/08 02:12:59;;;;;;;11.35;6.10;;;;;;;17.94;50.02;102383.09;4968469;28;122664;-75
2022/08/08 02:15:39;;;;;;;11.63;6.43;;;;;;;17.93;50.16;102381.34;4967873;28;122973;-75
2022/08/08 02:18:21;;;;;;;8.52;5.63;;;;;;;17.92;50.40;102379.63;4966948;28;113968;-75
2022/08/08 02:24:25;;;;;;;9.13;6.45;;;;;;;17.91;50.30;102383.25;4951430;28;123735;-75
2022/08/08 02:27:16;;;;;;;9.90;5.80;;;;;;;17.91;50.36;102377.88;4954900;28;127157;-75
2022/08/08 02:30:18;;;;;;;10.63;6.55;;;;;;;17.89;50.36;102378.00;4934460;28;113268;-75
2022/08/08 02:33:26;;;;;;;10.88;6.10;;;;;;;17.87;50.39;102371.81;4952788;28;113161;-75
2022/08/08 02:36:37;;;;;;;9.30;5.80;;;;;;;17.85;50.39;102375.53;4949479;28;123521;-75
2022/08/08 02:39:46;;;;;;;10.80;6.60;;;;;;;17.84;50.47;102376.47;4951079;28;123120;-76
2022/08/08 02:42:51;;;;;;;10.18;6.00;;;;;;;17.80;50.41;102374.84;4949474;28;113614;-75
2022/08/08 02:45:57;;;;;;;8.07;5.53;;;;;;;17.77;50.24;102375.03;4967449;28;113619;-75
2022/08/08 02:48:49;;;;;;;8.27;5.80;;;;;;;17.73;50.52;102376.13;4948941;28;123434;-75
2022/08/08 02:51:48;;;;;;;12.40;6.57;;;;;;;17.69;50.68;102375.44;4952418;28;123777;-75
2022/08/08 02:54:36;;;;;;;11.73;6.72;;;;;;;17.66;50.90;102376.44;4967569;28;115029;-75
2022/08/08 02:57:38;;;;;;;10.18;7.07;;;;;;;17.65;51.13;102377.38;4941834;28;114831;-76
2022/08/08 03:00:21;;;;;;;12.15;7.30;;;;;;;17.65;51.15;102376.50;4940244;28;124706;-75
2022/08/08 03:03:36;;;;;;;13.60;6.72;;;;;;;17.61;51.14;102373.13;4951061;28;123713;-75
2022/08/08 03:06:42;;;;;;;8.50;6.40;;;;;;;17.57;50.93;102379.56;4951521;28;114405;-75
2022/08/08 03:09:31;;;;;;;10.55;6.65;;;;;;;17.56;51.03;102377.00;4951855;28;113225;-75
2022/08/08 03:12:21;;;;;;;10.38;6.72;;;;;;;17.54;51.26;102374.38;4966965;28;124881;-75
2022/08/08 03:15:14;;;;;;;10.90;6.93;;;;;;;17.52;51.06;102376.28;4967103;28;123726;-75
2022/08/08 03:18:08;;;;;;;8.20;6.40;;;;;;;17.51;51.31;102379.88;4966138;28;116071;-76
2022/08/08 03:20:48;;;;;;;9.88;6.35;;;;;;;17.49;51.56;102381.78;4967959;28;113611;-75
2022/08/08 03:23:22;;;;;;;9.10;6.22;;;;;;;17.47;51.25;102379.16;4966765;28;123160;-76
2022/08/08 03:25:57;;;;;;;9.38;6.90;;;;;;;17.46;51.46;102381.91;4967405;28;123374;-75
2022/08/08 03:28:40;;;;;;;10.90;7.07;;;;;;;17.42;51.74;102385.69;4966633;28;113838;-76
2022/08/08 03:34:04;;;;;;;12.50;6.90;;;;;;;17.37;51.69;102387.75;4937854;28;123643;-75
2022/08/08 03:36:31;;;;;;;10.70;6.90;;;;;;;17.34;51.91;102390.56;4950924;28;123414;-75
2022/08/08 03:39:01;;;;;;;9.80;6.90;;;;;;;17.31;52.41;102392.44;4966153;28;114137;-76
2022/08/08 03:41:42;;;;;;;11.05;7.47;;;;;;;17.31;52.42;102395.13;4968916;28;113831;-76
2022/08/08 03:44:33;;;;;;;11.65;6.97;;;;;;;17.29;52.40;102397.00;4971123;28;123459;-75
2022/08/08 03:47:04;;;;;;;9.85;6.75;;;;;;;17.27;52.33;102401.59;4967194;28;122909;-75
2022/08/08 03:49:48;;;;;;;12.00;6.93;;;;;;;17.25;52.42;102400.78;4951212;28;114898;-75
2022/08/08 03:52:30;;;;;;;10.23;6.47;;;;;;;17.25;52.38;102406.16;4951303;28;114262;-75
2022/08/08 03:55:00;;;;;;;10.93;6.82;;;;;;;17.24;52.47;102409.75;4968309;28;124132;-75
2022/08/08 03:57:53;;;;;;;9.65;7.15;;;;;;;17.23;52.52;102412.50;4952305;28;124438;-76
2022/08/08 04:00:40;;;;;;;10.75;6.53;;;;;;;17.21;52.49;102409.88;4965219;28;113647;-76
2022/08/08 04:03:36;;;;;;;9.18;6.72;;;;;;;17.18;52.52;102420.75;4937400;28;112618;-76
2022/08/08 04:06:25;;;;;;;9.05;6.43;;;;;;;17.18;52.60;102420.75;4950055;28;123519;-76
2022/08/08 04:09:04;;;;;;;12.77;7.20;;;;;;;17.17;52.96;102423.50;4966075;28;124283;-75
2022/08/08 04:11:39;;;;;;;10.15;6.85;;;;;;;17.15;53.04;102418.22;4950681;28;112714;-75
2022/08/08 04:14:33;;;;;;;11.35;6.78;;;;;;;17.15;52.85;102420.91;4966706;28;113489;-75
2022/08/08 04:17:04;;;;;;;9.48;6.47;;;;;;;17.14;53.08;102424.53;4940640;28;123651;-75
2022/08/08 04:19:49;;;;;;;11.85;6.53;;;;;;;17.16;53.11;102421.75;4949774;28;123019;-75
2022/08/08 04:22:18;;;;;;;10.98;6.63;;;;;;;17.18;53.10;102419.88;4951353;28;114098;-76
2022/08/08 04:24:52;;;;;;;12.60;7.13;;;;;;;17.18;53.46;102415.41;4966502;28;113691;-75
2022/08/08 04:27:20;;;;;;;10.35;6.82;;;;;;;17.18;53.55;102420.75;4950565;28;122584;-75
2022/08/08 04:30:08;;;;;;;11.13;6.50;;;;;;;17.20;53.38;102424.22;4936803;28;123340;-75
2022/08/08 04:32:47;;;;;;;13.20;6.63;;;;;;;17.22;53.38;102422.34;4950540;28;114474;-76
2022/08/08 04:35:18;;;;;;;9.15;6.80;;;;;;;17.23;53.59;102418.72;4966539;28;113960;-75
2022/08/08 04:37:50;;;;;;;9.00;7.10;;;;;;;17.25;53.77;102422.22;4966050;28;123735;-76
2022/08/08 04:40:21;;;;;;;11.00;7.13;;;;;;;17.27;53.63;102417.66;4965461;28;123977;-75
2022/08/08 04:42:55;;;;;;;10.63;6.97;;;;;;;17.30;53.43;102416.63;4935007;28;116027;-76
2022/08/08 04:45:38;;;;;;;10.75;6.63;;;;;;;17.31;53.56;102431.75;4950474;28;114582;-76
2022/08/08 04:48:07;;;;;;;12.38;7.82;;;;;;;17.31;53.80;102432.63;4949268;28;123911;-75
2022/08/08 04:50:39;;;;;;;11.32;6.93;;;;;;;17.32;53.74;102434.34;4966526;28;123894;-75
2022/08/08 04:53:14;;;;;;;8.68;7.20;;;;;;;17.35;53.73;102443.16;4951575;28;113818;-76
2022/08/08 04:56:02;;;;;;;11.45;7.57;;;;;;;17.36;53.90;102434.22;4949893;28;114895;-76
2022/08/08 04:58:32;;;;;;;11.20;7.53;;;;;;;17.37;53.93;102441.31;4950013;28;123558;-75
2022/08/08 05:01:00;;;;;;;10.25;7.57;;;;;;;17.40;54.21;102446.50;4968280;28;124014;-76
2022/08/08 05:03:39;;;;;;;12.63;7.43;;;;;;;17.41;54.15;102454.47;4967239;28;114978;-75
2022/08/08 05:06:28;;;;;;;10.95;7.72;;;;;;;17.42;54.23;102455.31;4953036;28;113635;-75
2022/08/08 05:08:56;;;;;;;12.15;8.75;;;;;;;17.44;54.19;102467.72;4965637;28;123644;-75
2022/08/08 05:11:34;;;;;;;14.38;8.75;;;;;;;17.45;54.37;102468.59;4949727;28;123410;-75
2022/08/08 05:14:10;;;;;;;14.00;8.73;;;;;;;17.46;54.72;102456.91;4963969;28;114700;-75
2022/08/08 05:16:43;;;;;;;12.68;9.25;;;;;;;17.48;54.31;102463.09;4953306;28;113921;-75
2022/08/08 05:19:25;;;;;;;11.23;8.73;;;;;;;17.52;54.86;102462.00;4952876;28;124311;-75
2022/08/08 05:22:14;;;;;;;11.68;8.27;;;;;;;17.55;54.73;102461.81;4974928;28;122853;-75
2022/08/08 05:24:46;;;;;;;12.02;8.50;;;;;;;17.58;54.97;102455.47;4968201;28;113806;-75
2022/08/08 05:27:18;;;;;;;13.27;8.40;;;;;;;17.61;55.23;102461.56;4939092;28;112668;-75
2022/08/08 05:29:46;;;;;;;12.32;8.70;;;;;;;17.67;55.30;102461.25;4940099;28;122673;-75
2022/08/08 05:32:20;;;;;;;13.63;8.52;;;;;;;17.71;55.51;102462.81;4969462;28;123747;-75
2022/08/08 05:34:58;;;;;;;12.60;8.35;;;;;;;17.76;55.53;102453.69;4968427;28;114364;-75
2022/08/08 05:37:34;;;;;;;12.23;7.63;;;;;;;17.82;55.63;102458.72;4969716;28;114056;-75
2022/08/08 05:40:21;;;;;;;12.93;7.88;;;;;;;17.87;55.65;102462.09;4953137;28;123295;-75
2022/08/08 05:43:04;;;;;;;10.93;7.95;;;;;;;17.93;55.68;102456.41;4955080;28;123814;-75
2022/08/08 05:45:56;;;;;;;10.35;7.65;;;;;;;18.00;55.65;102468.56;4953061;28;114408;-74
2022/08/08 05:48:33;;;;;;;10.73;7.80;;;;;;;18.05;55.87;102471.03;4956286;28;113472;-76
2022/08/08 05:51:03;;;;;;;10.65;7.43;;;;;;;18.11;55.91;102460.00;4968573;28;123744;-75
2022/08/08 05:53:45;;;;;;;13.10;7.78;;;;;;;18.19;55.98;102473.00;4958853;28;124042;-75
2022/08/08 05:56:38;;;;;;;14.57;8.20;;;;;;;18.26;56.14;102471.75;4966487;28;114177;-75
2022/08/08 05:59:18;;;;;;;13.07;7.80;;;;;;;18.32;56.26;102468.75;4953193;28;113114;-75
2022/08/08 06:03:09;;;;;;;12.70;7.40;;;;;;;18.40;56.23;102474.59;4960210;28;123703;-75
2022/08/08 06:05:11;;;;;;;10.30;7.75;;;;;;;18.49;56.26;102479.44;4967084;28;123516;-75
2022/08/08 06:07:59;;;;;;;12.45;8.32;;;;;;;18.57;56.34;102472.81;4969216;28;114283;-75
2022/08/08 06:10:38;;;;;;;13.98;8.05;;;;;;;18.66;56.54;102483.06;4940326;28;114471;-75
2022/08/08 06:13:08;;;;;;;12.02;7.65;;;;;;;18.74;56.44;102470.13;4955744;28;123713;-75
2022/08/08 06:15:37;;;;;;;11.20;7.28;;;;;;;18.83;56.64;102479.50;4968447;28;123235;-75
2022/08/08 06:18:31;;;;;;;12.38;7.82;;;;;;;18.95;56.89;102477.97;4960876;28;114448;-75
2022/08/08 06:20:59;;;;;;;12.73;7.35;;;;;;;19.05;56.76;102484.59;4969072;28;113725;-75
2022/08/08 06:23:39;;;;;;;11.38;7.07;;;;;;;19.17;56.67;102478.53;4951440;28;123841;-75
2022/08/08 06:26:30;;;;;;;9.55;6.80;;;;;;;19.30;56.75;102488.63;4955025;28;123590;-75
2022/08/08 06:29:23;;;;;;;11.57;6.45;;;;;;;19.43;56.39;102495.03;4951061;28;114419;-75
2022/08/08 06:32:15;;;;;;;11.10;6.32;;;;;;;19.56;56.40;102490.69;4946621;28;114687;-75
2022/08/08 06:34:52;;;;;;;8.05;6.05;;;;;;;19.69;56.37;102495.38;4947789;28;123299;-76
2022/08/08 06:38:01;;;;;;;10.65;5.85;;;;;;;19.82;56.20;102499.13;4968157;28;123237;-75
2022/08/08 06:40:51;;;;;;;8.45;5.43;;;;;;;19.99;55.83;102498.16;4968355;28;113746;-75
2022/08/08 06:43:25;;;;;;;9.18;5.45;;;;;;;20.14;55.95;102497.25;4960730;28;113114;-75
2022/08/08 06:46:06;;;;;;;9.52;5.25;;;;;;;20.31;55.97;102498.94;4982629;28;122453;-75
2022/08/08 06:48:40;;;;;;;6.32;4.80;;;;;;;20.45;55.52;102499.94;4953924;28;123420;-75
2022/08/08 06:51:12;;;;;;;8.50;4.95;;;;;;;20.60;55.15;102499.03;4991930;28;113740;-75
2022/08/08 06:53:42;;;;;;;5.78;4.30;;;;;;;20.74;54.66;102511.66;4968802;28;113209;-75
2022/08/08 06:56:27;;;;;;;8.38;4.05;;;;;;;20.87;54.62;102500.97;4947392;28;123889;-75
2022/08/08 06:58:57;;;;;;;6.65;4.00;;;;;;;21.03;54.43;102495.50;4968331;28;123415;-75
2022/08/08 07:01:28;;;;;;;5.63;3.88;;;;;;;21.19;54.00;102502.50;4956125;28;115111;-75
2022/08/08 07:04:46;;;;;;;4.90;3.70;;;;;;;21.42;53.79;102502.88;4938007;28;114154;-75
2022/08/08 07:07:32;;;;;;;8.35;4.05;;;;;;;21.64;53.74;102501.47;4943625;28;122769;-76
2022/08/08 07:10:06;;;;;;;5.50;3.65;;;;;;;21.84;53.56;102490.25;4950741;28;123583;-75
2022/08/08 07:12:53;;;;;;;5.50;3.15;;;;;;;22.05;52.87;102497.88;4951007;28;114276;-75
2022/08/08 07:15:32;;;;;;;6.40;2.80;;;;;;;22.23;52.73;102503.88;4967982;28;113169;-75
2022/08/08 07:18:57;;;;;;;5.70;3.03;;;;;;;22.42;52.06;102501.66;4966704;28;123010;-75
2022/08/08 07:21:33;;;;;;;5.07;2.78;;;;;;;22.59;51.59;102507.72;4951029;28;125189;-75
2022/08/08 07:24:09;;;;;;;4.63;2.70;;;;;;;22.71;51.14;102504.16;4951097;28;115680;-75
2022/08/08 07:26:45;;;;;;;3.47;2.22;;;;;;;22.85;50.90;102513.97;4967310;28;114758;-74
2022/08/08 07:29:20;;;;;;;3.55;2.30;;;;;;;22.97;50.40;102505.00;4950800;28;123621;-74
2022/08/08 07:32:09;;;;;;;4.10;2.00;;;;;;;23.12;49.84;102509.34;4950326;28;123385;-75
2022/08/08 07:34:43;;;;;;;5.65;2.00;;;;;;;23.28;49.66;102513.66;4967327;28;114598;-75
2022/08/08 07:37:27;;;;;;;3.15;1.73;;;;;;;23.38;49.20;102520.13;4952961;28;113405;-75
2022/08/08 07:40:17;;;;;;;3.95;2.10;;;;;;;23.47;48.76;102514.06;4976917;28;124097;-75
2022/08/08 07:42:58;;;;;;;2.95;1.80;;;;;;;23.59;48.33;102517.69;4938931;28;122987;-75
2022/08/08 07:45:26;;;;;;;3.78;1.80;;;;;;;23.68;48.03;102516.16;4934978;28;113917;-74
2022/08/08 07:48:13;;;;;;;3.47;1.80;;;;;;;23.78;47.50;102522.59;4950148;28;113250;-75
2022/08/08 07:50:42;;;;;;;5.00;1.60;;;;;;;23.87;47.54;102521.94;4949706;28;124125;-75
2022/08/08 07:53:20;;;;;;;3.72;1.70;;;;;;;23.99;46.91;102524.69;4950522;28;123932;-76
2022/08/08 07:56:09;;;;;;;3.38;1.60;;;;;;;24.10;46.86;102527.47;4950666;28;112581;-75
2022/08/08 07:58:42;;;;;;;4.53;2.00;;;;;;;24.21;46.60;102524.78;4966867;28;113370;-75
2022/08/08 08:01:14;;;;;;;3.15;1.70;;;;;;;24.28;45.82;102526.06;4966446;28;123642;-75
2022/08/08 08:04:24;;;;;;;2.42;1.25;;;;;;;24.32;45.43;102532.09;4935634;28;123350;-75
2022/08/08 08:06:52;;;;;;;3.35;1.40;;;;;;;24.37;45.07;102539.84;4953350;28;112571;-75
2022/08/08 08:09:25;;;;;;;3.92;1.60;;;;;;;24.39;44.39;102529.75;4952039;28;113841;-76
2022/08/08 08:11:54;;;;;;;1.73;1.30;;;;;;;24.45;44.28;102542.84;4935644;28;123674;-75
2022/08/08 08:14:32;;;;;;;5.20;1.60;;;;;;;24.53;44.02;102539.59;4957232;28;123342;-75
2022/08/08 08:17:00;;;;;;;2.72;1.35;;;;;;;24.60;43.75;102541.69;4967340;28;114273;-75
2022/08/08 08:19:32;;;;;;;2.35;1.27;;;;;;;24.66;43.60;102535.78;4966277;28;113181;-76
2022/08/08 08:22:15;;;;;;;3.03;1.80;;;;;;;24.77;43.64;102536.78;4968144;28;123392;-76
2022/08/08 08:24:58;;;;;;;3.27;1.60;;;;;;;24.88;43.87;102542.22;4955127;28;123586;-76
2022/08/08 08:27:35;;;;;;;3.95;1.80;;;;;;;24.95;43.36;102540.75;4957226;28;114106;-76
2022/08/08 08:30:03;;;;;;;3.08;1.67;;;;;;;25.04;43.53;102544.59;4981834;28;113646;-76
2022/08/08 08:32:32;;;;;;;3.63;1.50;;;;;;;25.14;43.36;102547.41;4987526;28;123266;-76
2022/08/08 08:35:16;;;;;;;5.20;1.70;;;;;;;25.24;43.01;102545.72;4981876;28;123616;-76
2022/08/08 08:37:47;;;;;;;2.38;1.48;;;;;;;25.32;42.93;102548.69;4975757;28;113366;-76
2022/08/08 08:40:35;;;;;;;2.53;1.50;;;;;;;25.39;42.59;102541.78;4955923;28;112760;-75
2022/08/08 08:43:06;;;;;;;3.70;1.65;;;;;;;25.47;42.44;102545.69;4962155;28;122673;-76
2022/08/08 08:45:46;;;;;;;3.22;1.33;;;;;;;25.56;42.15;102550.38;4954175;28;123736;-76
2022/08/08 08:48:17;;;;;;;4.65;1.23;;;;;;;25.64;41.79;102547.91;4954593;28;114280;-76
2022/08/08 08:50:49;;;;;;;;;;;;;;;25.70;42.81;102558.25;4955892;28;113348;-76
2022/08/08 08:53:20;;;;;;;3.70;1.40;;;;;;;25.80;41.83;102550.22;4954372;28;124009;-75
2022/08/08 08:56:13;;;;;;;1.60;1.13;;;;;;;25.88;41.72;102560.41;4969297;28;123021;-75
2022/08/08 08:58:51;;;;;;;5.18;1.50;;;;;;;25.90;41.57;102564.75;4955390;28;113942;-75
2022/08/08 09:01:27;;;;;;;3.08;1.33;;;;;;;25.95;41.31;102550.81;4940047;28;116012;-75
2022/08/08 09:04:00;;;;;;;2.75;1.60;;;;;;;26.02;41.08;102552.88;4953521;28;123267;-75
2022/08/08 09:06:40;;;;;;;2.58;1.40;;;;;;;26.10;41.31;102554.94;4924662;28;122632;-75
2022/08/08 09:09:24;;;;;;;2.38;1.02;;;;;;;26.17;39.89;102550.72;4952414;28;114877;-75
2022/08/08 09:12:17;;;;;;;3.38;1.42;;;;;;;26.13;40.09;102549.28;4940060;28;114769;-75
2022/08/08 09:14:48;;;;;;;3.08;1.58;;;;;;;26.13;39.70;102548.41;4969677;28;123797;-75
2022/08/08 09:17:19;;;;;;;2.72;1.17;;;;;;;26.13;39.49;102541.13;4976304;28;123199;-76
2022/08/08 09:20:09;;;;;;;4.38;1.48;;;;;;;26.17;39.70;102545.31;4962077;28;113614;-75
2022/08/08 09:22:57;;;;;;;2.63;1.38;;;;;;;26.28;40.21;102546.25;4962427;28;112353;-75
2022/08/08 09:25:26;;;;;;;2.42;1.20;;;;;;;26.39;39.83;102546.16;4975764;28;122315;-75
2022/08/08 09:28:14;;;;;;;2.40;1.23;;;;;;;26.53;39.74;102539.56;4979721;28;124081;-75
2022/08/08 09:31:08;;;;;;;3.75;1.55;;;;;;;26.64;39.55;102546.84;4960993;28;113280;-75
2022/08/08 09:33:51;;;;;;;4.55;1.60;;;;;;;26.68;39.52;102538.25;4977007;28;113354;-75
2022/08/08 09:36:45;;;;;;;3.92;1.15;;;;;;;26.75;39.65;102539.47;4975527;28;122149;-75
2022/08/08 09:39:55;;;;;;;1.55;0.90;;;;;;;26.86;39.66;102545.78;4953493;28;123270;-75
2022/08/08 09:42:26;;;;;;;1.52;1.10;;;;;;;26.93;39.14;102536.97;4957834;28;113438;-75
2022/08/08 09:45:09;;;;;;;3.88;1.30;;;;;;;26.91;39.07;102544.41;4965616;28;112286;-75
2022/08/08 09:47:48;;;;;;;4.32;1.40;;;;;;;26.95;39.64;102534.97;4937708;28;124060;-74
2022/08/08 09:50:35;;;;;;;3.17;1.40;;;;;;;26.98;39.24;102534.69;4974118;28;122849;-75
2022/08/08 09:53:13;;;;;;;2.67;1.10;;;;;;;26.97;39.23;102535.72;4970689;28;114364;-75
2022/08/08 09:56:03;;;;;;;1.90;1.42;;;;;;;26.95;38.66;102540.41;4953266;28;113406;-75
2022/08/08 09:58:39;;;;;;;2.90;1.35;;;;;;;26.91;38.75;102538.97;4955416;28;124142;-75
2022/08/08 10:01:11;;;;;;;2.45;1.17;;;;;;;26.94;39.30;102541.41;4938430;28;123047;-75
2022/08/08 10:04:00;;;;;;;2.35;1.20;;;;;;;27.03;38.62;102541.59;4969987;28;115459;-75
2022/08/08 10:06:31;;;;;;;3.05;1.10;;;;;;;27.11;38.94;102539.06;4967506;28;115121;-75
2022/08/08 10:09:04;;;;;;;1.95;1.02;;;;;;;27.18;38.79;102552.00;4968512;28;124585;-75
2022/08/08 10:11:37;;;;;;;1.35;0.98;;;;;;;27.24;38.46;102550.56;4970566;28;123948;-75
2022/08/08 10:14:35;;;;;;;1.98;1.23;;;;;;;27.27;38.51;102539.44;4955907;28;113330;-75
2022/08/08 10:17:07;;;;;;;3.28;1.10;;;;;;;27.35;38.27;102542.34;4949806;28;115389;-75
2022/08/08 10:20:00;;;;;;;2.47;1.00;;;;;;;27.43;37.97;102538.06;4968870;28;124197;-75
2022/08/08 10:22:33;;;;;;;2.58;1.00;;;;;;;27.51;38.13;102546.41;4953899;28;124379;-75
2022/08/08 10:25:04;;;;;;;2.55;1.17;;;;;;;27.59;37.76;102543.81;4967918;28;114081;-75
2022/08/08 10:27:42;;;;;;;2.35;0.93;;;;;;;27.56;37.22;102547.69;4970706;28;113375;-75
2022/08/08 10:30:10;;;;;;;2.22;1.20;;;;;;;27.50;36.78;102545.53;4951909;28;122529;-75
2022/08/08 10:32:58;;;;;;;2.13;1.10;;;;;;;27.45;37.55;102536.94;4970604;28;123709;-74
2022/08/08 10:35:29;;;;;;;2.60;1.25;;;;;;;27.49;37.12;102542.97;4972565;28;114024;-75
2022/08/08 10:38:18;;;;;;;2.05;1.00;;;;;;;27.56;37.61;102533.25;4974846;28;114234;-76
2022/08/08 10:40:50;;;;;;;1.75;1.20;;;;;;;27.68;37.41;102532.09;4969853;28;124533;-75
2022/08/08 10:43:17;;;;;;;1.83;1.00;;;;;;;27.80;37.32;102523.81;4969849;28;123801;-75
2022/08/08 10:45:50;;;;;;;2.60;1.02;;;;;;;27.82;36.86;102533.56;4970014;28;114360;-75
2022/08/08 10:48:34;;;;;;;2.63;1.10;;;;;;;27.76;36.69;102537.72;4968532;28;113651;-75
2022/08/08 10:51:24;;;;;;;1.77;1.00;;;;;;;27.69;36.74;102533.84;4965664;28;125116;-75
2022/08/08 10:53:54;;;;;;;2.72;1.00;;;;;;;27.66;37.13;102534.09;4970696;28;124628;-75
2022/08/08 10:56:30;;;;;;;3.58;1.10;;;;;;;27.69;36.62;102525.66;4968534;28;114704;-75
2022/08/08 10:59:09;;;;;;;2.85;1.25;;;;;;;27.73;36.61;102521.66;4967568;28;114805;-75
2022/08/08 11:01:44;;;;;;;2.15;1.00;;;;;;;27.79;36.15;102522.09;4952536;28;124381;-75
2022/08/08 11:04:15;;;;;;;1.73;0.93;;;;;;;27.77;36.21;102514.91;4952497;28;123627;-75
2022/08/08 11:06:59;;;;;;;2.15;1.00;;;;;;;27.72;36.27;102519.06;4939050;28;113819;-75
2022/08/08 11:09:28;;;;;;;2.25;1.10;;;;;;;27.69;36.37;102522.06;4969789;28;113751;-76
2022/08/08 11:12:00;;;;;;;1.60;0.90;;;;;;;27.68;36.81;102515.75;4967877;28;124399;-75
2022/08/08 11:14:58;;;;;;;2.42;1.10;;;;;;;27.67;36.30;102514.06;4958536;28;122426;-75
2022/08/08 11:17:28;;;;;;;1.65;0.80;;;;;;;27.68;36.07;102515.75;4962572;28;114474;-75
2022/08/08 11:20:22;;;;;;;1.65;1.00;;;;;;;27.76;36.25;102513.22;4961089;28;114474;-75
2022/08/08 11:23:01;;;;;;;1.58;1.20;;;;;;;27.91;36.68;102515.53;4954776;28;123722;-75
2022/08/08 11:25:33;;;;;;;2.00;1.00;;;;;;;27.99;36.54;102512.97;4953222;28;122430;-75
2022/08/08 11:28:24;;;;;;;1.20;0.82;;;;;;;27.97;35.96;102514.94;4952820;28;113887;-75
2022/08/08 11:30:57;;;;;;;2.97;0.90;;;;;;;27.90;36.02;102513.84;4969670;28;113848;-75
2022/08/08 11:33:27;;;;;;;2.58;1.02;;;;;;;27.83;36.25;102516.22;4967325;28;124620;-75
2022/08/08 11:36:14;;;;;;;2.45;1.10;;;;;;;27.81;36.94;102503.75;4966684;28;122475;-75
2022/08/08 11:38:44;;;;;;;3.08;1.25;;;;;;;27.89;36.49;102506.66;4969681;28;115481;-75
2022/08/08 11:41:25;;;;;;;2.38;0.90;;;;;;;27.94;36.09;102509.81;4968285;28;114368;-75
2022/08/08 11:43:58;;;;;;;1.42;0.90;;;;;;;28.03;36.41;102511.69;4968683;28;124713;-76
2022/08/08 11:46:27;;;;;;;1.33;0.95;;;;;;;28.10;35.91;102501.06;4968178;28;123661;-75
2022/08/08 11:49:00;;;;;;;2.42;1.13;;;;;;;28.12;35.93;102502.66;4966669;28;115194;-75
2022/08/08 11:51:31;;;;;;;1.92;0.85;;;;;;;28.20;36.08;102499.19;4961057;28;113726;-74
2022/08/08 11:54:16;;;;;;;1.60;0.90;;;;;;;28.30;35.89;102499.19;4955558;28;123585;-74
2022/08/08 11:57:22;;;;;;;3.22;0.93;;;;;;;28.41;35.84;102496.28;4954011;28;123704;-74
2022/08/08 12:00:00;;;;;;;2.35;1.00;;;;;;;28.50;35.00;102489.06;4944394;28;114684;-74
2022/08/08 12:02:53;;;;;;;1.50;1.00;;;;;;;28.56;35.41;102482.22;4954631;28;114108;-74
2022/08/08 12:05:35;;;;;;;1.98;0.95;;;;;;;28.71;35.43;102486.22;4956598;28;123035;-73
2022/08/08 12:08:03;;;;;;;1.63;1.00;;;;;;;28.88;34.83;102488.16;4969112;28;123080;-74
2022/08/08 12:10:30;;;;;;;2.22;1.00;;;;;;;28.97;34.06;102490.97;4971463;28;114597;-74
2022/08/08 12:13:10;;;;;;;2.15;0.80;;;;;;;28.96;33.85;102489.28;4971128;28;113685;-74
2022/08/08 12:15:47;;;;;;;3.13;1.02;;;;;;;28.97;33.89;102499.16;4968558;28;123265;-74
2022/08/08 12:18:19;;;;;;;1.40;0.80;;;;;;;28.94;33.34;102486.69;4965982;28;123943;-74
2022/08/08 12:20:49;;;;;;;1.90;0.90;;;;;;;28.92;33.84;102483.25;4969890;28;113755;-74
2022/08/08 12:23:29;;;;;;;3.38;1.05;;;;;;;28.90;33.94;102486.13;4975213;28;113003;-73
2022/08/08 12:26:20;;;;;;;2.05;0.95;;;;;;;28.97;34.11;102482.78;4974887;28;123784;-75
2022/08/08 12:29:18;;;;;;;1.63;1.05;;;;;;;29.01;33.82;102476.00;4942666;28;124996;-75
2022/08/08 12:32:00;;;;;;;1.00;0.88;;;;;;;29.03;33.80;102484.94;4971589;28;114472;-75
2022/08/08 12:34:37;;;;;;;1.60;1.10;;;;;;;29.08;33.56;102477.13;4957691;28;113833;-74